Time;durP1;ratioP1;P1;durP2;ratioP2;P2;SDS_P1;SDS_P2;PMS_P1;PMS_P2;Temp;Humidity;BMP_temperature;BMP_pressure;BME280_temperature;BME280_humidity;BME280_pressure;Samples;Min_cycle;Max_cycle;Signal;HPM_P1;HPM_P2
2021/01/02 00:00:47;;;;;;;60.13;43.70;;;;;;;2.58;96.10;99906.13;5060863;28;20379;-78
2021/01/02 00:04:06;;;;;;;61.63;44.25;;;;;;;2.58;95.73;99912.28;5072178;28;20051;-76
2021/01/02 00:08:06;;;;;;;61.67;44.78;;;;;;;2.51;95.87;99899.50;5072164;28;20055;-78
2021/01/02 00:11:27;;;;;;;58.92;42.42;;;;;;;2.50;96.06;99901.31;5066323;28;20423;-77
2021/01/02 00:15:07;;;;;;;60.40;43.80;;;;;;;2.53;95.88;99901.13;5071640;28;20043;-78
2021/01/02 00:18:49;;;;;;;62.92;43.13;;;;;;;2.53;96.12;99900.25;5060679;28;20067;-78
2021/01/02 00:22:41;;;;;;;59.10;43.47;;;;;;;2.53;96.28;99884.38;5071858;28;20047;-76
2021/01/02 00:25:57;;;;;;;58.83;41.40;;;;;;;2.54;96.20;99875.50;5071970;28;20395;-76
2021/01/02 00:29:03;;;;;;;54.60;39.17;;;;;;;2.58;96.39;99874.34;5071737;28;20051;-78
2021/01/02 00:32:47;;;;;;;55.65;39.33;;;;;;;2.62;96.04;99889.94;5071707;28;20382;-78
2021/01/02 00:35:52;;;;;;;56.78;39.67;;;;;;;2.63;96.44;99891.66;5021330;28;20488;-78
2021/01/02 00:38:56;;;;;;;56.88;40.63;;;;;;;2.58;96.18;99880.50;5010654;28;20436;-77
2021/01/02 00:42:02;;;;;;;52.70;38.25;;;;;;;2.57;96.47;99873.47;5021672;28;20076;-78
2021/01/02 00:45:09;;;;;;;55.17;38.03;;;;;;;2.65;96.25;99870.34;5010464;28;20053;-76
2021/01/02 00:48:15;;;;;;;50.78;36.97;;;;;;;2.61;96.37;99855.63;5021579;28;20064;-75
2021/01/02 00:51:20;;;;;;;49.13;36.72;;;;;;;2.62;96.34;99841.41;5010422;28;20045;-78
2021/01/02 00:54:46;;;;;;;53.30;37.60;;;;;;;2.51;96.35;99849.19;5032412;28;20052;-77
2021/01/02 00:58:00;;;;;;;50.80;37.13;;;;;;;2.50;96.56;99855.44;5021656;28;20052;-78
2021/01/02 01:01:07;;;;;;;47.13;36.53;;;;;;;2.56;96.73;99857.69;5010415;28;20543;-78
2021/01/02 01:05:19;;;;;;;49.17;36.28;;;;;;;2.58;96.55;99871.69;5011762;28;20049;-77
2021/01/02 01:08:25;;;;;;;48.22;35.22;;;;;;;2.58;96.78;99875.19;4954618;28;20049;-77
2021/01/02 01:11:35;;;;;;;53.00;36.95;;;;;;;2.63;96.72;99877.56;4971096;28;20057;-78
2021/01/02 01:14:39;;;;;;;47.97;37.13;;;;;;;2.62;96.30;99874.06;5070217;28;20047;-77
2021/01/02 01:18:04;;;;;;;52.22;37.90;;;;;;;2.61;96.51;99874.16;5070493;28;20055;-78
2021/01/02 01:21:09;;;;;;;47.95;36.22;;;;;;;2.61;96.70;99860.91;5070419;28;20043;-77
2021/01/02 01:24:35;;;;;;;58.15;38.92;;;;;;;2.62;96.53;99865.25;5070401;28;20058;-77
2021/01/02 01:27:54;;;;;;;51.92;38.05;;;;;;;2.55;96.71;99874.53;5070525;28;20063;-77
2021/01/02 01:31:01;;;;;;;58.05;39.78;;;;;;;2.53;96.77;99889.66;5070546;28;20383;-77
2021/01/02 01:34:11;;;;;;;65.43;41.97;;;;;;;2.52;96.83;99880.88;5069802;28;20051;-76
2021/01/02 01:37:19;;;;;;;68.55;43.70;;;;;;;2.52;96.97;99882.66;5070424;28;20055;-78
2021/01/02 01:40:31;;;;;;;72.75;41.88;;;;;;;2.44;97.12;99896.41;5070703;28;20043;-78
2021/01/02 01:44:04;;;;;;;71.53;43.20;;;;;;;2.50;97.41;99896.00;5058898;28;20047;-79
2021/01/02 01:47:16;;;;;;;70.65;42.00;;;;;;;2.51;97.56;99876.53;5058963;28;20047;-78
2021/01/02 01:50:25;;;;;;;71.95;41.35;;;;;;;2.56;97.52;99874.44;5070244;28;20063;-77
2021/01/02 01:53:55;;;;;;;78.30;42.85;;;;;;;2.61;97.65;99869.72;5069853;28;20047;-76
2021/01/02 01:57:06;;;;;;;83.00;44.10;;;;;;;2.54;97.60;99847.19;5059099;28;20399;-76
2021/01/02 02:00:17;;;;;;;70.63;41.92;;;;;;;2.53;97.92;99842.84;5058745;28;20059;-76
2021/01/02 02:03:26;;;;;;;57.72;39.50;;;;;;;2.53;97.87;99842.84;5070157;28;20047;-77
2021/01/02 02:06:33;;;;;;;59.47;38.08;;;;;;;2.51;97.98;99851.84;5069556;28;20047;-78
2021/01/02 02:09:43;;;;;;;52.78;38.13;;;;;;;2.46;97.82;99845.97;5069878;28;20039;-77
2021/01/02 02:12:53;;;;;;;55.30;38.67;;;;;;;2.46;97.76;99845.97;5070026;28;20493;-78
2021/01/02 02:15:59;;;;;;;53.42;36.30;;;;;;;2.48;97.87;99847.59;5048589;28;20047;-78
2021/01/02 02:19:13;;;;;;;56.33;39.25;;;;;;;2.47;97.81;99848.53;5056715;28;20074;-77
2021/01/02 02:22:23;;;;;;;50.40;38.15;;;;;;;2.52;97.77;99849.09;5058371;28;20048;-77
2021/01/02 02:25:44;;;;;;;52.22;39.28;;;;;;;2.51;97.65;99833.28;5058506;28;20047;-78
2021/01/02 02:29:07;;;;;;;56.50;37.55;;;;;;;2.58;97.78;99837.25;5058008;28;20051;-78
2021/01/02 02:32:17;;;;;;;55.33;36.35;;;;;;;2.55;97.72;99840.94;5058681;28;20051;-76
2021/01/02 02:35:22;;;;;;;54.47;37.72;;;;;;;2.56;97.71;99829.41;5037473;28;20052;-77
2021/01/02 02:38:26;;;;;;;53.80;38.85;;;;;;;2.56;97.83;99833.84;5063800;28;20496;-78
2021/01/02 02:41:37;;;;;;;55.35;38.08;;;;;;;2.56;97.61;99815.31;5065078;28;20051;-76
2021/01/02 02:44:48;;;;;;;59.22;39.55;;;;;;;2.57;97.45;99823.16;5053461;28;20048;-77
2021/01/02 02:47:55;;;;;;;53.70;37.55;;;;;;;2.54;97.71;99811.91;5065015;28;20063;-77
2021/01/02 02:51:00;;;;;;;51.95;38.20;;;;;;;2.60;97.31;99808.88;5066366;28;20051;-77
2021/01/02 02:54:04;;;;;;;49.30;36.00;;;;;;;2.56;97.47;99800.28;5063676;28;20067;-77
2021/01/02 02:57:11;;;;;;;51.28;36.75;;;;;;;2.57;97.59;99801.09;5051698;28;20075;-77
2021/01/02 03:00:17;;;;;;;59.10;38.33;;;;;;;2.52;97.54;99798.75;5033348;28;20048;-77
2021/01/02 03:03:22;;;;;;;65.28;40.22;;;;;;;2.55;97.74;99798.56;5041482;28;20403;-78
2021/01/02 03:06:31;;;;;;;58.97;40.42;;;;;;;2.57;97.59;99795.81;5044674;28;20052;-77
2021/01/02 03:09:35;;;;;;;63.78;37.55;;;;;;;2.58;97.52;99800.16;5042585;28;20051;-78
2021/01/02 03:12:51;;;;;;;64.07;39.90;;;;;;;2.57;97.55;99801.97;5053164;28;20044;-78
2021/01/02 03:15:56;;;;;;;60.05;41.05;;;;;;;2.57;97.42;99811.69;5075155;28;20050;-79
2021/01/02 03:19:03;;;;;;;63.75;40.15;;;;;;;2.53;97.37;99805.75;5063947;28;20514;-77
2021/01/02 03:22:08;;;;;;;69.05;40.75;;;;;;;2.56;97.59;99802.06;5064534;28;20059;-76
2021/01/02 03:25:14;;;;;;;59.22;39.05;;;;;;;2.58;97.43;99794.88;5064581;28;20067;-76
2021/01/02 03:28:18;;;;;;;62.70;40.63;;;;;;;2.54;97.69;99783.59;5064443;28;20055;-76
2021/01/02 03:31:23;;;;;;;79.60;41.53;;;;;;;2.48;97.78;99778.72;5064458;28;20052;-79
2021/01/02 03:34:27;;;;;;;66.22;41.65;;;;;;;2.55;97.57;99785.31;5068871;28;20047;-76
2021/01/02 03:37:36;;;;;;;64.93;42.97;;;;;;;2.55;97.86;99782.69;5051927;28;20051;-75
2021/01/02 03:40:41;;;;;;;70.47;42.28;;;;;;;2.59;98.02;99778.03;5056091;28;20402;-78
2021/01/02 03:43:45;;;;;;;74.55;42.25;;;;;;;2.57;97.92;99769.31;5060982;28;20051;-78
2021/01/02 03:46:50;;;;;;;77.00;43.13;;;;;;;2.59;97.81;99776.22;5061119;28;20059;-77
2021/01/02 03:49:54;;;;;;;70.40;42.30;;;;;;;2.51;97.71;99764.44;5063496;28;20055;-76
2021/01/02 03:52:59;;;;;;;76.78;43.20;;;;;;;2.51;98.01;99759.13;5040817;28;20048;-77
2021/01/02 03:56:03;;;;;;;72.30;40.90;;;;;;;2.52;98.39;99744.91;5055614;28;20062;-78
2021/01/02 03:59:07;;;;;;;65.43;40.65;;;;;;;2.53;98.04;99763.38;5040666;28;20047;-78
2021/01/02 04:02:12;;;;;;;71.80;41.95;;;;;;;2.47;98.23;99766.41;5052249;28;20056;-78
2021/01/02 04:05:16;;;;;;;73.93;42.00;;;;;;;2.53;98.11;99775.78;5051968;28;20060;-76
2021/01/02 04:08:20;;;;;;;74.95;42.92;;;;;;;2.53;98.56;99767.81;5052071;28;20055;-78
2021/01/02 04:11:25;;;;;;;72.10;42.17;;;;;;;2.58;98.40;99771.03;5052334;28;20387;-76
2021/01/02 04:14:29;;;;;;;74.32;42.30;;;;;;;2.51;98.46;99762.63;5052037;28;20052;-77
2021/01/02 04:17:34;;;;;;;75.10;41.13;;;;;;;2.57;98.34;99756.06;5071127;28;20059;-77
2021/01/02 04:20:38;;;;;;;69.20;43.05;;;;;;;2.55;98.28;99745.59;5071710;28;20055;-77
2021/01/02 04:23:44;;;;;;;66.82;42.22;;;;;;;2.59;98.27;99740.97;5071681;28;20055;-77
2021/01/02 04:26:48;;;;;;;68.32;40.95;;;;;;;2.51;98.41;99738.81;5060199;28;20391;-77
2021/01/02 04:29:53;;;;;;;68.65;41.28;;;;;;;2.54;98.34;99743.06;5060395;28;20040;-77
2021/01/02 04:32:57;;;;;;;65.43;40.17;;;;;;;2.58;98.61;99745.41;5071683;28;20047;-78
2021/01/02 04:36:02;;;;;;;64.13;40.38;;;;;;;2.57;98.43;99719.00;5060492;28;20044;-77
2021/01/02 04:39:06;;;;;;;58.80;39.25;;;;;;;2.55;98.65;99720.91;5044761;28;20048;-78
2021/01/02 04:42:10;;;;;;;61.20;38.95;;;;;;;2.51;98.63;99704.38;5060468;28;20403;-78
2021/01/02 04:45:17;;;;;;;59.17;38.95;;;;;;;2.56;98.26;99712.00;5051715;28;20055;-78
2021/01/02 04:48:21;;;;;;;58.78;37.22;;;;;;;2.57;98.18;99697.78;5028985;28;20048;-76
2021/01/02 04:51:25;;;;;;;60.83;39.35;;;;;;;2.60;98.42;99702.91;5023226;28;20048;-77
2021/01/02 04:54:30;;;;;;;55.90;38.60;;;;;;;2.65;98.40;99706.09;5022884;28;20048;-77
2021/01/02 04:57:36;;;;;;;64.93;41.00;;;;;;;2.67;98.34;99713.97;5046850;28;20055;-76
2021/01/02 05:00:41;;;;;;;58.67;38.00;;;;;;;2.65;98.31;99714.03;5045212;28;20052;-76
2021/01/02 05:03:46;;;;;;;60.78;39.42;;;;;;;2.67;98.16;99717.44;5031392;28;20494;-78
2021/01/02 05:06:51;;;;;;;61.08;39.03;;;;;;;2.67;98.27;99722.75;5056534;28;20408;-78
2021/01/02 05:09:56;;;;;;;57.70;38.78;;;;;;;2.69;98.38;99720.88;5050990;28;20426;-77
2021/01/02 05:13:12;;;;;;;59.03;38.35;;;;;;;2.70;98.31;99733.16;5045459;28;20056;-76
2021/01/02 05:16:23;;;;;;;56.80;38.78;;;;;;;2.65;98.04;99735.25;5048148;28;20063;-76
2021/01/02 05:19:27;;;;;;;68.40;40.25;;;;;;;2.58;98.13;99715.41;5050453;28;20044;-78
2021/01/02 05:22:32;;;;;;;62.70;38.67;;;;;;;2.54;97.98;99724.50;5050755;28;20055;-77
2021/01/02 05:25:37;;;;;;;63.25;40.72;;;;;;;2.56;98.18;99739.34;5061953;28;20077;-77
2021/01/02 05:28:42;;;;;;;63.88;39.40;;;;;;;2.61;98.43;99717.84;5061622;28;20383;-78
2021/01/02 05:31:51;;;;;;;59.38;38.90;;;;;;;2.64;98.14;99718.50;5011034;28;20046;-77
2021/01/02 05:34:56;;;;;;;54.00;36.42;;;;;;;2.64;98.00;99707.91;5018984;28;20044;-78
2021/01/02 05:38:19;;;;;;;58.03;37.63;;;;;;;2.67;98.08;99704.19;5042191;28;20486;-78
2021/01/02 05:41:24;;;;;;;55.55;37.75;;;;;;;2.57;98.19;99696.00;5030768;28;20199;-78
2021/01/02 05:44:33;;;;;;;55.20;36.85;;;;;;;2.58;97.99;99705.66;5063407;28;20513;-77
2021/01/02 05:47:38;;;;;;;57.45;36.28;;;;;;;2.61;97.75;99707.25;5070246;28;20055;-77
2021/01/02 05:50:43;;;;;;;54.90;37.05;;;;;;;2.62;97.87;99698.34;5081908;28;20391;-77
2021/01/02 05:54:06;;;;;;;56.35;36.65;;;;;;;2.64;97.98;99693.81;5070680;28;20117;-77
2021/01/02 05:57:11;;;;;;;52.55;35.55;;;;;;;2.63;98.21;99697.41;5081733;28;20047;-77
2021/01/02 06:00:19;;;;;;;54.13;35.17;;;;;;;2.66;97.78;99705.16;5070304;28;20043;-77
2021/01/02 06:03:25;;;;;;;52.85;35.95;;;;;;;2.68;97.94;99694.44;5069799;28;20059;-78
2021/01/02 06:06:30;;;;;;;49.35;34.67;;;;;;;2.68;98.02;99689.16;5069352;28;20059;-77
2021/01/02 06:09:35;;;;;;;49.88;35.08;;;;;;;2.72;97.80;99699.44;5069760;28;20082;-77
2021/01/02 06:12:42;;;;;;;51.03;34.47;;;;;;;2.70;97.95;99700.50;5069756;28;20063;-78
2021/01/02 06:15:46;;;;;;;52.30;35.53;;;;;;;2.68;97.79;99690.00;5070002;28;20390;-76
2021/01/02 06:18:51;;;;;;;50.45;35.25;;;;;;;2.69;97.93;99689.06;5081498;28;20039;-76
2021/01/02 06:21:56;;;;;;;48.42;36.20;;;;;;;2.69;97.94;99686.41;5081432;28;20047;-78
2021/01/02 06:25:00;;;;;;;53.13;35.35;;;;;;;2.68;97.63;99683.84;5093011;28;20393;-78
2021/01/02 06:28:08;;;;;;;48.95;33.78;;;;;;;2.76;97.85;99686.84;5092960;28;20060;-77
2021/01/02 06:31:14;;;;;;;51.28;35.67;;;;;;;2.73;97.54;99698.50;5069286;28;20525;-78
2021/01/02 06:34:20;;;;;;;46.47;34.53;;;;;;;2.77;97.65;99688.53;5072969;28;20055;-77
2021/01/02 06:37:24;;;;;;;53.70;35.15;;;;;;;2.78;97.59;99687.59;5078430;28;20055;-78
2021/01/02 06:40:34;;;;;;;50.28;35.50;;;;;;;2.82;97.69;99689.94;5059956;28;20051;-77
2021/01/02 06:43:39;;;;;;;47.20;35.05;;;;;;;2.82;97.46;99684.63;5058264;28;20486;-77
2021/01/02 06:46:44;;;;;;;48.78;34.10;;;;;;;2.78;97.35;99691.09;5049606;28;20047;-78
2021/01/02 06:49:51;;;;;;;48.28;34.65;;;;;;;2.75;97.58;99682.50;5038365;28;20047;-78
2021/01/02 06:52:55;;;;;;;50.22;35.72;;;;;;;2.75;97.13;99672.75;5057732;28;20067;-77
2021/01/02 06:56:10;;;;;;;50.05;35.55;;;;;;;2.77;97.48;99664.69;5078255;28;20159;-77
2021/01/02 06:59:21;;;;;;;51.92;36.47;;;;;;;2.73;97.49;99669.34;5078281;28;20055;-75
2021/01/02 07:02:32;;;;;;;49.83;35.10;;;;;;;2.71;97.36;99671.25;5089958;28;20066;-78
2021/01/02 07:05:43;;;;;;;49.75;34.78;;;;;;;2.78;97.61;99680.50;5038114;28;20054;-78
2021/01/02 07:09:11;;;;;;;48.80;34.85;;;;;;;2.82;97.73;99670.53;5049331;28;20059;-77
2021/01/02 07:12:15;;;;;;;49.10;34.05;;;;;;;2.79;97.55;99678.69;5038070;28;20051;-78
2021/01/02 07:15:25;;;;;;;47.58;35.00;;;;;;;2.80;97.62;99680.38;5038288;28;20047;-78
2021/01/02 07:18:29;;;;;;;43.38;33.45;;;;;;;2.83;97.62;99680.19;5038320;28;20051;-77
2021/01/02 07:21:39;;;;;;;41.10;32.40;;;;;;;2.87;97.69;99679.03;5052921;28;20067;-78
2021/01/02 07:25:03;;;;;;;42.83;30.92;;;;;;;2.84;97.78;99674.78;5052778;28;20387;-77
2021/01/02 07:28:07;;;;;;;44.42;32.33;;;;;;;2.80;97.57;99660.03;5041376;28;20052;-78
2021/01/02 07:31:11;;;;;;;43.75;32.50;;;;;;;2.87;97.59;99661.31;5052815;28;20075;-78
2021/01/02 07:34:21;;;;;;;46.38;34.92;;;;;;;2.79;97.66;99674.22;5052507;28;20394;-79
2021/01/02 07:37:30;;;;;;;53.95;36.58;;;;;;;2.74;97.96;99678.97;5041798;28;20075;-81
2021/01/02 07:40:36;;;;;;;55.88;36.47;;;;;;;2.69;98.08;99670.53;5041221;28;20079;-81
2021/01/02 07:43:41;;;;;;;51.10;35.72;;;;;;;2.79;98.27;99671.59;5041277;28;20115;-80
2021/01/02 07:46:46;;;;;;;48.17;34.33;;;;;;;2.87;98.31;99679.88;5052521;28;20064;-80
2021/01/02 07:49:59;;;;;;;46.33;32.72;;;;;;;2.86;98.19;99690.59;5041099;28;20502;-79
2021/01/02 07:53:03;;;;;;;47.47;33.67;;;;;;;2.87;98.41;99676.38;5052471;28;20047;-77
2021/01/02 07:56:08;;;;;;;46.20;32.60;;;;;;;2.92;98.31;99674.25;5051791;28;20051;-78
2021/01/02 07:59:26;;;;;;;49.70;32.95;;;;;;;2.91;98.29;99678.75;5059205;28;20150;-78
2021/01/02 08:02:32;;;;;;;45.65;32.38;;;;;;;2.96;98.29;99673.94;5060546;28;20039;-79
2021/01/02 08:05:37;;;;;;;51.80;34.70;;;;;;;3.00;98.30;99674.59;5060481;28;20047;-78
2021/01/02 08:08:57;;;;;;;55.80;36.88;;;;;;;2.99;98.10;99656.97;5060623;28;20375;-79
2021/01/02 08:12:06;;;;;;;50.88;34.75;;;;;;;2.99;98.16;99668.44;5060710;28;20043;-78
2021/01/02 08:15:10;;;;;;;49.75;31.63;;;;;;;2.99;98.39;99660.50;5059968;28;20035;-78
2021/01/02 08:18:15;;;;;;;49.75;32.88;;;;;;;3.00;98.19;99671.94;5060530;28;20051;-78
2021/01/02 08:21:20;;;;;;;46.25;30.13;;;;;;;3.03;98.52;99679.69;5059914;28;20059;-77
2021/01/02 08:24:24;;;;;;;54.42;32.22;;;;;;;3.02;97.81;99676.19;5060569;28;20051;-79
2021/01/02 08:27:33;;;;;;;51.70;30.15;;;;;;;3.05;98.01;99683.09;5060169;28;20051;-78
2021/01/02 08:30:38;;;;;;;44.55;29.70;;;;;;;3.05;98.22;99667.19;5060428;28;20047;-78
2021/01/02 08:33:43;;;;;;;51.20;30.55;;;;;;;3.08;98.05;99673.13;5059916;28;20047;-78
2021/01/02 08:36:47;;;;;;;50.22;29.65;;;;;;;3.06;98.24;99668.91;5060169;28;20047;-79
2021/01/02 08:40:06;;;;;;;54.72;31.20;;;;;;;3.16;98.18;99664.66;5071748;28;20069;-78
2021/01/02 08:43:24;;;;;;;50.70;30.35;;;;;;;3.21;98.39;99652.75;5062454;28;20043;-78
2021/01/02 08:46:29;;;;;;;54.75;30.73;;;;;;;3.22;98.24;99661.56;5063198;28;20051;-77
2021/01/02 08:49:36;;;;;;;45.47;29.60;;;;;;;3.28;98.00;99667.28;5069931;28;20402;-79
2021/01/02 08:52:43;;;;;;;48.97;30.50;;;;;;;3.26;98.54;99652.44;5059632;28;20047;-78
2021/01/02 08:55:48;;;;;;;44.45;28.13;;;;;;;3.24;98.07;99649.91;5059586;28;20047;-78
2021/01/02 08:58:54;;;;;;;46.38;29.00;;;;;;;3.24;98.25;99649.06;5070321;28;20055;-79
2021/01/02 09:01:58;;;;;;;56.10;30.42;;;;;;;3.24;98.14;99647.25;5059422;28;20051;-78
2021/01/02 09:05:07;;;;;;;42.65;28.15;;;;;;;3.30;98.20;99659.25;5070872;28;20056;-79
2021/01/02 09:08:18;;;;;;;46.75;28.40;;;;;;;3.33;98.52;99666.16;5061993;28;20055;-80
2021/01/02 09:11:23;;;;;;;62.03;34.85;;;;;;;3.39;98.35;99668.34;5050294;28;20055;-79
2021/01/02 09:14:29;;;;;;;233.75;140.98;;;;;;;3.40;98.71;99664.75;5050168;28;20501;-78
2021/01/02 09:17:48;;;;;;;81.18;47.65;;;;;;;3.47;98.35;99658.06;5059056;28;20054;-78
2021/01/02 09:20:52;;;;;;;46.17;29.35;;;;;;;3.45;98.01;99662.66;5058983;28;20044;-78
2021/01/02 09:23:57;;;;;;;45.28;28.42;;;;;;;3.46;98.34;99651.06;5058785;28;20513;-77
2021/01/02 09:27:01;;;;;;;46.90;28.92;;;;;;;3.51;98.32;99648.94;5058603;28;20051;-79
2021/01/02 09:30:08;;;;;;;50.75;29.05;;;;;;;3.57;97.81;99643.22;5064050;28;20048;-78
2021/01/02 09:33:14;;;;;;;44.17;27.83;;;;;;;3.60;98.20;99645.66;5058780;28;20584;-78
2021/01/02 09:36:21;;;;;;;41.97;26.33;;;;;;;3.62;97.77;99643.72;5035535;28;20056;-78
2021/01/02 09:39:24;;;;;;;43.03;26.33;;;;;;;3.69;97.94;99640.53;5039647;28;20187;-77
2021/01/02 09:42:29;;;;;;;43.75;28.67;;;;;;;3.62;97.85;99636.63;5018412;28;20172;-78
2021/01/02 09:45:34;;;;;;;44.33;27.30;;;;;;;3.69;97.63;99635.22;5018133;28;20135;-79
2021/01/02 09:48:41;;;;;;;40.28;26.13;;;;;;;3.72;97.71;99629.72;5017359;28;20080;-78
2021/01/02 09:51:47;;;;;;;44.17;27.90;;;;;;;3.77;97.47;99621.41;5017552;28;20064;-79
2021/01/02 09:54:51;;;;;;;42.95;26.38;;;;;;;3.77;97.54;99632.88;5018314;28;20048;-78
2021/01/02 09:57:57;;;;;;;37.30;24.83;;;;;;;3.77;97.13;99618.75;5008822;28;20064;-79
2021/01/02 10:01:02;;;;;;;37.38;23.25;;;;;;;3.81;97.04;99617.56;5009172;28;20056;-78
2021/01/02 10:04:07;;;;;;;40.30;26.25;;;;;;;3.78;96.95;99612.47;5039900;28;20052;-78
2021/01/02 10:07:12;;;;;;;35.55;23.90;;;;;;;3.77;96.79;99603.69;5017293;28;20550;-80
2021/01/02 10:10:18;;;;;;;37.17;23.73;;;;;;;3.79;97.01;99596.47;5008698;28;20060;-78
2021/01/02 10:13:22;;;;;;;39.33;24.33;;;;;;;3.74;97.31;99590.63;4998691;28;20056;-81
2021/01/02 10:16:27;;;;;;;79.30;53.65;;;;;;;3.72;97.51;99595.22;4989566;28;20065;-82
2021/01/02 10:19:33;;;;;;;77.40;47.10;;;;;;;3.68;97.39;99592.91;5012016;28;20449;-80
2021/01/02 10:22:37;;;;;;;56.60;38.38;;;;;;;3.65;97.70;99588.66;4978617;28;20052;-86
2021/01/02 10:25:41;;;;;;;50.20;32.60;;;;;;;3.69;97.92;99591.91;5000619;28;20045;-77
2021/01/02 10:28:47;;;;;;;46.28;31.42;;;;;;;3.73;98.17;99585.41;5000545;28;20045;-80
2021/01/02 10:31:51;;;;;;;44.72;29.48;;;;;;;3.77;98.42;99576.28;5000525;28;20492;-84
2021/01/02 10:34:57;;;;;;;40.92;28.92;;;;;;;3.90;98.37;99575.28;5035349;28;20052;-77
2021/01/02 10:38:02;;;;;;;39.60;27.10;;;;;;;3.96;98.20;99574.00;5050913;28;20048;-78
2021/01/02 10:41:06;;;;;;;35.38;24.23;;;;;;;3.96;98.09;99550.09;5051210;28;20139;-77
2021/01/02 10:44:11;;;;;;;31.40;21.58;;;;;;;4.05;98.03;99553.91;5051210;28;20088;-78
2021/01/02 10:47:20;;;;;;;38.53;22.08;;;;;;;4.09;97.85;99544.72;5052982;28;20044;-76
2021/01/02 10:50:25;;;;;;;37.08;24.40;;;;;;;4.16;97.82;99543.31;5069968;28;20059;-78
2021/01/02 10:53:29;;;;;;;42.00;28.48;;;;;;;4.15;97.75;99537.16;5072526;28;20068;-78
2021/01/02 10:56:34;;;;;;;36.85;25.58;;;;;;;4.22;97.39;99546.34;5076058;28;20509;-78
2021/01/02 10:59:41;;;;;;;31.35;22.52;;;;;;;4.16;97.23;99527.38;5076395;28;20051;-78
2021/01/02 11:02:46;;;;;;;33.17;22.02;;;;;;;4.17;97.04;99515.81;5076422;28;20115;-77
2021/01/02 11:05:51;;;;;;;28.92;20.60;;;;;;;4.22;96.92;99516.31;5075714;28;20493;-78
2021/01/02 11:08:57;;;;;;;32.03;20.92;;;;;;;4.21;96.87;99507.50;5076901;28;20055;-77
2021/01/02 11:12:01;;;;;;;27.35;19.90;;;;;;;4.31;97.07;99504.97;5076913;28;20119;-78
2021/01/02 11:15:07;;;;;;;27.75;19.35;;;;;;;4.38;96.89;99496.44;5075990;28;20047;-78
2021/01/02 11:18:12;;;;;;;27.17;19.38;;;;;;;4.41;96.82;99498.00;5076797;28;20055;-78
2021/01/02 11:21:16;;;;;;;26.40;18.00;;;;;;;4.43;96.80;99496.94;5076768;28;20119;-78
2021/01/02 11:24:23;;;;;;;30.00;20.15;;;;;;;4.39;97.04;99487.50;5076669;28;20047;-78
2021/01/02 11:27:28;;;;;;;24.58;17.70;;;;;;;4.47;97.06;99487.75;5076585;28;20043;-78
2021/01/02 11:30:32;;;;;;;26.77;18.65;;;;;;;4.45;96.71;99480.84;5076538;28;20051;-78
2021/01/02 11:33:36;;;;;;;25.40;17.30;;;;;;;4.50;96.98;99484.88;5071789;28;20063;-78
2021/01/02 11:36:42;;;;;;;24.92;16.98;;;;;;;4.47;97.05;99476.28;5075497;28;20060;-78
2021/01/02 11:39:46;;;;;;;25.55;17.67;;;;;;;4.45;97.19;99476.41;5074715;28;20063;-79
2021/01/02 11:42:50;;;;;;;28.38;19.05;;;;;;;4.45;97.13;99478.19;5075979;28;20055;-77
2021/01/02 11:45:55;;;;;;;30.95;18.98;;;;;;;4.43;97.13;99469.50;5075608;28;20044;-77
2021/01/02 11:48:59;;;;;;;30.60;18.88;;;;;;;4.43;97.42;99467.72;5075591;28;20055;-78
2021/01/02 11:52:07;;;;;;;31.67;19.40;;;;;;;4.44;97.71;99468.56;5075886;28;20047;-77
2021/01/02 11:55:12;;;;;;;30.83;20.60;;;;;;;4.45;97.65;99459.59;5075472;28;20044;-77
2021/01/02 11:58:16;;;;;;;29.42;20.27;;;;;;;4.48;97.71;99448.75;5075787;28;20059;-78
2021/01/02 12:01:22;;;;;;;30.42;20.67;;;;;;;4.53;97.80;99457.22;5075315;28;20047;-78
2021/01/02 12:04:29;;;;;;;33.78;21.40;;;;;;;4.56;97.60;99447.19;5055114;28;20487;-77
2021/01/02 12:07:36;;;;;;;30.55;21.42;;;;;;;4.61;97.75;99441.53;5074177;28;20063;-77
2021/01/02 12:10:40;;;;;;;32.92;23.42;;;;;;;4.61;97.63;99441.53;5075201;28;20071;-78
2021/01/02 12:13:44;;;;;;;32.38;23.27;;;;;;;4.62;97.64;99439.72;5074145;28;20048;-77
2021/01/02 12:16:51;;;;;;;31.20;22.60;;;;;;;4.54;97.71;99433.16;5075254;28;20055;-78
2021/01/02 12:19:59;;;;;;;35.53;23.13;;;;;;;4.55;97.57;99429.56;5074983;28;20436;-77
2021/01/02 12:23:05;;;;;;;38.95;27.65;;;;;;;4.53;97.80;99426.19;5074639;28;20048;-77
2021/01/02 12:26:10;;;;;;;36.35;26.45;;;;;;;4.53;98.23;99418.19;5074904;28;20051;-78
2021/01/02 12:29:16;;;;;;;37.85;25.35;;;;;;;4.60;98.17;99415.91;5075255;28;20057;-78
2021/01/02 12:32:25;;;;;;;37.70;25.88;;;;;;;4.63;98.11;99420.13;5075225;28;20055;-78
2021/01/02 12:35:29;;;;;;;42.97;28.38;;;;;;;4.66;98.11;99412.78;5087854;28;20414;-77
2021/01/02 12:38:36;;;;;;;41.78;26.85;;;;;;;4.70;98.49;99410.72;5062929;28;20056;-77
2021/01/02 12:41:40;;;;;;;37.70;26.38;;;;;;;4.73;98.40;99400.69;5075528;28;20056;-77
2021/01/02 12:44:49;;;;;;;39.75;25.77;;;;;;;4.83;98.33;99398.16;5075347;28;20043;-79
2021/01/02 12:47:53;;;;;;;39.83;28.25;;;;;;;4.92;98.49;99397.41;5092994;28;20130;-77
2021/01/02 12:50:58;;;;;;;38.53;27.08;;;;;;;5.04;98.44;99389.28;5093247;28;20059;-78
2021/01/02 12:54:03;;;;;;;41.55;27.85;;;;;;;5.13;98.63;99387.72;5095117;28;20489;-78
2021/01/02 12:57:08;;;;;;;33.65;25.02;;;;;;;5.17;98.14;99389.16;5095368;28;20047;-79
2021/01/02 13:00:13;;;;;;;42.08;30.33;;;;;;;5.11;97.74;99374.53;5094877;28;20059;-80
2021/01/02 13:03:18;;;;;;;42.28;31.95;;;;;;;5.13;98.13;99375.28;5095129;28;20043;-79
2021/01/02 13:06:22;;;;;;;44.15;33.05;;;;;;;5.16;97.91;99375.00;5094856;28;20047;-80
2021/01/02 13:09:28;;;;;;;48.97;34.72;;;;;;;5.14;97.97;99376.94;5080917;28;20051;-78
2021/01/02 13:12:33;;;;;;;40.90;30.80;;;;;;;5.16;97.81;99376.84;5092947;28;20513;-79
2021/01/02 13:15:37;;;;;;;39.90;29.55;;;;;;;5.18;98.14;99372.22;5080471;28;20386;-79
2021/01/02 13:18:41;;;;;;;37.03;28.48;;;;;;;5.18;97.93;99369.56;5092956;28;20052;-78
2021/01/02 13:21:53;;;;;;;44.15;29.92;;;;;;;5.21;97.99;99374.63;5092783;28;20051;-81
2021/01/02 13:24:57;;;;;;;53.10;36.83;;;;;;;5.20;98.16;99364.97;5081360;28;20055;-79
2021/01/02 13:28:01;;;;;;;73.50;53.40;;;;;;;5.21;98.31;99361.31;5094350;28;20067;-79
2021/01/02 13:31:06;;;;;;;54.90;41.38;;;;;;;5.26;98.67;99364.44;5082408;28;20059;-80
2021/01/02 13:34:10;;;;;;;49.40;36.40;;;;;;;5.25;98.53;99360.97;5094282;28;20106;-79
2021/01/02 13:37:15;;;;;;;37.05;29.65;;;;;;;5.25;98.64;99368.09;5094565;28;20063;-78
2021/01/02 13:40:20;;;;;;;38.90;28.70;;;;;;;5.23;98.60;99362.06;5094484;28;20066;-78
2021/01/02 13:43:25;;;;;;;34.80;28.25;;;;;;;5.28;98.66;99359.88;5081823;28;20059;-80
2021/01/02 13:46:30;;;;;;;34.38;26.63;;;;;;;5.28;98.58;99353.69;5094095;28;20391;-79
2021/01/02 13:49:35;;;;;;;37.53;29.88;;;;;;;5.26;98.75;99362.63;5093977;28;20071;-80
2021/01/02 13:52:40;;;;;;;42.22;31.13;;;;;;;5.28;98.99;99367.84;5093991;28;20055;-79
2021/01/02 13:55:44;;;;;;;41.80;30.05;;;;;;;5.28;98.75;99351.91;5093994;28;20051;-78
2021/01/02 13:58:49;;;;;;;42.78;28.98;;;;;;;5.28;99.12;99360.69;5093887;28;20077;-79
2021/01/02 14:01:57;;;;;;;42.35;28.25;;;;;;;5.28;99.32;99365.19;5093877;28;20063;-78
2021/01/02 14:05:01;;;;;;;41.63;29.17;;;;;;;5.26;99.44;99367.09;5081372;28;20058;-80
2021/01/02 14:08:05;;;;;;;39.80;26.15;;;;;;;5.22;99.45;99357.69;5093606;28;20047;-79
2021/01/02 14:11:19;;;;;;;38.90;25.77;;;;;;;5.23;99.38;99364.72;5093828;28;20055;-80
2021/01/02 14:14:24;;;;;;;41.15;29.20;;;;;;;5.19;99.91;99365.94;5093721;28;20047;-79
2021/01/02 14:17:29;;;;;;;42.08;28.00;;;;;;;5.15;99.83;99353.84;5081011;28;20059;-80
2021/01/02 14:20:33;;;;;;;43.35;28.88;;;;;;;5.13;100.00;99356.66;5081062;28;20036;-79
2021/01/02 14:23:38;;;;;;;40.70;29.35;;;;;;;5.11;99.95;99363.06;5093625;28;20596;-80
2021/01/02 14:26:44;;;;;;;48.60;31.75;;;;;;;5.06;100.00;99360.75;5093516;28;20043;-80
2021/01/02 14:29:49;;;;;;;51.38;33.63;;;;;;;5.03;100.00;99361.03;5100225;28;20501;-80
2021/01/02 14:32:54;;;;;;;50.47;34.42;;;;;;;5.02;100.00;99354.00;5087801;28;20502;-79